sensor_id;sensor_type;location;lat;lon;timestamp;pressure;altitude;pressure_sealevel;temperature;humidity
57594;BME280;43423;46.510;6.686;2022-12-19T00:02:08;97440.38;;;2.67;86.65
57594;BME280;43423;46.510;6.686;2022-12-19T00:04:33;97446.50;;;2.75;86.88
57594;BME280;43423;46.510;6.686;2022-12-19T00:06:59;97442.59;;;2.79;86.66
57594;BME280;43423;46.510;6.686;2022-12-19T00:09:25;97448.38;;;2.85;86.13
57594;BME280;43423;46.510;6.686;2022-12-19T00:11:51;97453.41;;;2.83;85.33
57594;BME280;43423;46.510;6.686;2022-12-19T00:14:17;97462.25;;;2.94;85.82
57594;BME280;43423;46.510;6.686;2022-12-19T00:16:43;97466.50;;;2.95;85.48
57594;BME280;43423;46.510;6.686;2022-12-19T00:19:10;97455.59;;;2.99;84.53
57594;BME280;43423;46.510;6.686;2022-12-19T00:21:37;97453.63;;;2.99;84.90
57594;BME280;43423;46.510;6.686;2022-12-19T00:24:05;97454.41;;;3.00;85.30
57594;BME280;43423;46.510;6.686;2022-12-19T00:26:33;97451.69;;;3.00;85.63
57594;BME280;43423;46.510;6.686;2022-12-19T00:29:02;97435.03;;;2.98;85.77
57594;BME280;43423;46.510;6.686;2022-12-19T00:31:33;97413.81;;;2.86;85.45
57594;BME280;43423;46.510;6.686;2022-12-19T00:33:59;97432.78;;;2.89;85.90
57594;BME280;43423;46.510;6.686;2022-12-19T00:36:27;97425.41;;;2.90;85.96
57594;BME280;43423;46.510;6.686;2022-12-19T00:38:56;97443.59;;;2.96;85.88
57594;BME280;43423;46.510;6.686;2022-12-19T00:41:26;97436.63;;;2.95;86.22
57594;BME280;43423;46.510;6.686;2022-12-19T00:43:54;97434.31;;;2.94;86.00
57594;BME280;43423;46.510;6.686;2022-12-19T00:46:20;97432.31;;;2.98;86.41
57594;BME280;43423;46.510;6.686;2022-12-19T00:48:46;97422.69;;;2.93;86.26
57594;BME280;43423;46.510;6.686;2022-12-19T00:51:14;97427.09;;;2.76;85.66
57594;BME280;43423;46.510;6.686;2022-12-19T00:53:40;97424.47;;;2.66;86.67
57594;BME280;43423;46.510;6.686;2022-12-19T00:56:09;97426.78;;;2.71;87.05
57594;BME280;43423;46.510;6.686;2022-12-19T00:58:35;97423.59;;;2.76;86.33
57594;BME280;43423;46.510;6.686;2022-12-19T01:01:11;97427.34;;;2.89;86.04
57594;BME280;43423;46.510;6.686;2022-12-19T01:03:36;97431.53;;;2.97;85.45
57594;BME280;43423;46.510;6.686;2022-12-19T01:06:03;97431.91;;;2.99;84.87
57594;BME280;43423;46.510;6.686;2022-12-19T01:08:29;97429.94;;;3.00;86.29
57594;BME280;43423;46.510;6.686;2022-12-19T01:10:54;97439.19;;;3.10;85.02
57594;BME280;43423;46.510;6.686;2022-12-19T01:13:22;97438.38;;;3.13;85.46
57594;BME280;43423;46.510;6.686;2022-12-19T01:15:48;97431.03;;;3.10;85.51
57594;BME280;43423;46.510;6.686;2022-12-19T01:18:13;97417.88;;;3.04;85.58
57594;BME280;43423;46.510;6.686;2022-12-19T01:20:40;97421.38;;;3.05;85.41
57594;BME280;43423;46.510;6.686;2022-12-19T01:23:08;97418.31;;;2.99;84.79
57594;BME280;43423;46.510;6.686;2022-12-19T01:25:35;97423.38;;;2.97;84.81
57594;BME280;43423;46.510;6.686;2022-12-19T01:28:02;97431.88;;;3.03;84.92
57594;BME280;43423;46.510;6.686;2022-12-19T01:30:28;97424.84;;;3.05;85.16
57594;BME280;43423;46.510;6.686;2022-12-19T01:32:55;97425.97;;;3.08;84.59
57594;BME280;43423;46.510;6.686;2022-12-19T01:35:22;97422.50;;;3.07;84.60
57594;BME280;43423;46.510;6.686;2022-12-19T01:37:49;97405.19;;;2.94;85.08
57594;BME280;43423;46.510;6.686;2022-12-19T01:40:15;97404.72;;;2.99;85.23
57594;BME280;43423;46.510;6.686;2022-12-19T01:42:40;97419.75;;;3.11;84.55
57594;BME280;43423;46.510;6.686;2022-12-19T01:47:44;97416.19;;;3.18;85.06
57594;BME280;43423;46.510;6.686;2022-12-19T01:50:14;97434.72;;;3.26;85.13
57594;BME280;43423;46.510;6.686;2022-12-19T01:52:42;97416.13;;;3.25;84.73
57594;BME280;43423;46.510;6.686;2022-12-19T01:55:09;97409.91;;;3.24;84.84
57594;BME280;43423;46.510;6.686;2022-12-19T01:57:36;97395.22;;;3.18;85.33
57594;BME280;43423;46.510;6.686;2022-12-19T02:00:03;97406.03;;;3.22;85.59
57594;BME280;43423;46.510;6.686;2022-12-19T02:02:53;97399.84;;;3.21;85.43
57594;BME280;43423;46.510;6.686;2022-12-19T02:05:21;97393.78;;;3.06;85.41
57594;BME280;43423;46.510;6.686;2022-12-19T02:07:48;97408.75;;;3.22;85.56
57594;BME280;43423;46.510;6.686;2022-12-19T02:10:14;97401.09;;;3.13;86.16
57594;BME280;43423;46.510;6.686;2022-12-19T02:12:42;97416.22;;;3.14;85.75
57594;BME280;43423;46.510;6.686;2022-12-19T02:15:09;97405.75;;;3.16;85.61
57594;BME280;43423;46.510;6.686;2022-12-19T02:18:02;97403.41;;;3.15;85.89
57594;BME280;43423;46.510;6.686;2022-12-19T02:31:22;97401.94;;;3.06;84.79
57594;BME280;43423;46.510;6.686;2022-12-19T02:36:39;97400.56;;;2.91;85.89
57594;BME280;43423;46.510;6.686;2022-12-19T02:39:09;97396.75;;;2.85;86.46
57594;BME280;43423;46.510;6.686;2022-12-19T02:41:45;97398.72;;;2.85;86.83
57594;BME280;43423;46.510;6.686;2022-12-19T02:44:17;97404.13;;;2.85;85.93
57594;BME280;43423;46.510;6.686;2022-12-19T02:46:46;97398.03;;;2.73;85.75
57594;BME280;43423;46.510;6.686;2022-12-19T02:49:13;97403.44;;;2.77;86.73
57594;BME280;43423;46.510;6.686;2022-12-19T02:51:39;97401.88;;;2.76;86.65
57594;BME280;43423;46.510;6.686;2022-12-19T02:54:05;97402.25;;;2.78;86.39
57594;BME280;43423;46.510;6.686;2022-12-19T02:56:38;97402.25;;;2.78;87.44
57594;BME280;43423;46.510;6.686;2022-12-19T03:04:57;97382.03;;;2.83;87.31
57594;BME280;43423;46.510;6.686;2022-12-19T03:07:29;97399.00;;;2.90;87.78
57594;BME280;43423;46.510;6.686;2022-12-19T03:12:59;97395.50;;;2.93;88.19
57594;BME280;43423;46.510;6.686;2022-12-19T03:15:27;97397.34;;;3.00;88.09
57594;BME280;43423;46.510;6.686;2022-12-19T03:18:00;97385.41;;;2.94;88.04
57594;BME280;43423;46.510;6.686;2022-12-19T03:20:48;97402.00;;;3.03;87.64
57594;BME280;43423;46.510;6.686;2022-12-19T03:23:15;97391.13;;;3.03;88.47
57594;BME280;43423;46.510;6.686;2022-12-19T03:25:43;97377.94;;;3.01;87.87
57594;BME280;43423;46.510;6.686;2022-12-19T03:28:15;97386.47;;;3.03;87.99
57594;BME280;43423;46.510;6.686;2022-12-19T03:30:44;97393.84;;;3.03;88.14
57594;BME280;43423;46.510;6.686;2022-12-19T03:33:12;97397.34;;;3.00;87.33
57594;BME280;43423;46.510;6.686;2022-12-19T03:35:39;97402.44;;;2.98;87.32
57594;BME280;43423;46.510;6.686;2022-12-19T03:38:06;97400.16;;;2.93;87.23
57594;BME280;43423;46.510;6.686;2022-12-19T03:40:34;97403.72;;;2.86;87.46
57594;BME280;43423;46.510;6.686;2022-12-19T03:43:04;97396.72;;;2.89;87.30
57594;BME280;43423;46.510;6.686;2022-12-19T03:45:56;97389.00;;;2.84;86.53
57594;BME280;43423;46.510;6.686;2022-12-19T03:48:34;97388.69;;;2.78;87.50
57594;BME280;43423;46.510;6.686;2022-12-19T03:59:08;97389.38;;;2.86;87.60
57594;BME280;43423;46.510;6.686;2022-12-19T04:01:35;97376.63;;;2.79;86.99
57594;BME280;43423;46.510;6.686;2022-12-19T04:04:03;97372.03;;;2.72;87.33
57594;BME280;43423;46.510;6.686;2022-12-19T04:06:32;97388.19;;;2.87;88.33
57594;BME280;43423;46.510;6.686;2022-12-19T04:08:58;97399.38;;;2.92;87.60
57594;BME280;43423;46.510;6.686;2022-12-19T04:11:26;97394.03;;;2.85;88.00
57594;BME280;43423;46.510;6.686;2022-12-19T04:14:00;97398.59;;;2.95;87.84
57594;BME280;43423;46.510;6.686;2022-12-19T04:16:33;97393.94;;;2.92;87.25
57594;BME280;43423;46.510;6.686;2022-12-19T04:19:09;97397.81;;;2.95;87.85
57594;BME280;43423;46.510;6.686;2022-12-19T04:21:44;97387.72;;;2.95;87.77
57594;BME280;43423;46.510;6.686;2022-12-19T04:24:20;97376.44;;;2.97;87.65
57594;BME280;43423;46.510;6.686;2022-12-19T04:26:50;97373.69;;;3.00;88.17
57594;BME280;43423;46.510;6.686;2022-12-19T04:29:18;97372.59;;;2.94;88.64
57594;BME280;43423;46.510;6.686;2022-12-19T04:31:43;97376.78;;;2.99;88.74
57594;BME280;43423;46.510;6.686;2022-12-19T04:34:09;97368.66;;;2.99;88.03
57594;BME280;43423;46.510;6.686;2022-12-19T04:36:35;97372.94;;;2.96;88.33
57594;BME280;43423;46.510;6.686;2022-12-19T04:39:01;97374.09;;;2.99;87.25
57594;BME280;43423;46.510;6.686;2022-12-19T04:41:26;97371.78;;;2.97;87.65
57594;BME280;43423;46.510;6.686;2022-12-19T04:43:52;97374.97;;;2.89;88.16
57594;BME280;43423;46.510;6.686;2022-12-19T04:46:17;97369.88;;;2.94;88.94
57594;BME280;43423;46.510;6.686;2022-12-19T04:48:43;97373.69;;;3.00;88.65
57594;BME280;43423;46.510;6.686;2022-12-19T04:51:09;97364.44;;;2.94;88.61
57594;BME280;43423;46.510;6.686;2022-12-19T04:53:34;97366.69;;;2.99;88.52
57594;BME280;43423;46.510;6.686;2022-12-19T04:56:04;97368.25;;;3.00;88.57
57594;BME280;43423;46.510;6.686;2022-12-19T04:58:30;97364.75;;;3.00;88.58
57594;BME280;43423;46.510;6.686;2022-12-19T05:01:04;97361.25;;;2.99;88.16
57594;BME280;43423;46.510;6.686;2022-12-19T05:03:31;97369.03;;;3.01;88.51
57594;BME280;43423;46.510;6.686;2022-12-19T05:06:07;97368.25;;;3.00;88.75
57594;BME280;43423;46.510;6.686;2022-12-19T05:08:34;97368.34;;;2.93;88.41
57594;BME280;43423;46.510;6.686;2022-12-19T05:11:01;97374.63;;;2.87;88.38
57594;BME280;43423;46.510;6.686;2022-12-19T05:13:27;97376.19;;;2.84;88.22
57594;BME280;43423;46.510;6.686;2022-12-19T05:16:02;97360.78;;;2.74;89.09
57594;BME280;43423;46.510;6.686;2022-12-19T05:18:29;97364.97;;;2.82;88.11
57594;BME280;43423;46.510;6.686;2022-12-19T05:20:55;97352.97;;;2.79;88.30
57594;BME280;43423;46.510;6.686;2022-12-19T05:23:21;97353.81;;;2.73;87.69
57594;BME280;43423;46.510;6.686;2022-12-19T05:25:47;97359.88;;;2.84;87.75
57594;BME280;43423;46.510;6.686;2022-12-19T05:28:13;97353.00;;;2.76;87.18
57594;BME280;43423;46.510;6.686;2022-12-19T05:30:39;97349.06;;;2.80;87.20
57594;BME280;43423;46.510;6.686;2022-12-19T05:33:05;97341.81;;;2.70;87.71
57594;BME280;43423;46.510;6.686;2022-12-19T05:35:32;97346.09;;;2.68;87.43
57594;BME280;43423;46.510;6.686;2022-12-19T05:37:58;97343.84;;;2.63;87.75
57594;BME280;43423;46.510;6.686;2022-12-19T05:40:23;97345.81;;;2.59;87.13
57594;BME280;43423;46.510;6.686;2022-12-19T05:42:49;97335.34;;;2.57;85.94
57594;BME280;43423;46.510;6.686;2022-12-19T05:45:15;97340.09;;;2.49;84.52
57594;BME280;43423;46.510;6.686;2022-12-19T05:47:40;97338.97;;;2.43;84.46
57594;BME280;43423;46.510;6.686;2022-12-19T05:50:08;97347.88;;;2.47;82.90
57594;BME280;43423;46.510;6.686;2022-12-19T05:52:35;97352.53;;;2.43;82.30
57594;BME280;43423;46.510;6.686;2022-12-19T05:55:00;97353.38;;;2.37;81.87
57594;BME280;43423;46.510;6.686;2022-12-19T05:57:26;97355.00;;;2.31;83.22
57594;BME280;43423;46.510;6.686;2022-12-19T05:59:51;97358.50;;;2.28;82.86
57594;BME280;43423;46.510;6.686;2022-12-19T06:02:17;97361.97;;;2.32;83.46
57594;BME280;43423;46.510;6.686;2022-12-19T06:04:42;97342.56;;;2.33;83.98
57594;BME280;43423;46.510;6.686;2022-12-19T06:07:08;97331.78;;;2.26;85.04
57594;BME280;43423;46.510;6.686;2022-12-19T06:09:34;97341.41;;;2.34;84.59
57594;BME280;43423;46.510;6.686;2022-12-19T06:11:59;97352.63;;;2.36;85.44
57594;BME280;43423;46.510;6.686;2022-12-19T06:14:25;97343.69;;;2.39;84.32
57594;BME280;43423;46.510;6.686;2022-12-19T06:16:51;97347.19;;;2.36;85.21
57594;BME280;43423;46.510;6.686;2022-12-19T06:19:20;97351.06;;;2.39;85.27
57594;BME280;43423;46.510;6.686;2022-12-19T06:21:46;97339.44;;;2.35;86.47
57594;BME280;43423;46.510;6.686;2022-12-19T06:24:11;97349.13;;;2.39;86.27
57594;BME280;43423;46.510;6.686;2022-12-19T06:26:37;97348.72;;;2.41;86.39
57594;BME280;43423;46.510;6.686;2022-12-19T06:29:02;97340.50;;;2.44;86.77
57594;BME280;43423;46.510;6.686;2022-12-19T06:31:28;97339.38;;;2.42;87.77
57594;BME280;43423;46.510;6.686;2022-12-19T06:33:53;97345.59;;;2.42;87.14
57594;BME280;43423;46.510;6.686;2022-12-19T06:36:24;97345.66;;;2.35;88.58
57594;BME280;43423;46.510;6.686;2022-12-19T06:38:51;97345.59;;;2.42;88.49
57594;BME280;43423;46.510;6.686;2022-12-19T06:41:18;97340.91;;;2.43;89.21
57594;BME280;43423;46.510;6.686;2022-12-19T06:44:05;97343.69;;;2.39;88.00
57594;BME280;43423;46.510;6.686;2022-12-19T06:46:31;97331.31;;;2.35;88.34
57594;BME280;43423;46.510;6.686;2022-12-19T06:48:57;97332.94;;;2.25;88.53
57594;BME280;43423;46.510;6.686;2022-12-19T06:51:23;97337.97;;;2.30;88.29
57594;BME280;43423;46.510;6.686;2022-12-19T06:53:48;97331.38;;;2.28;88.11
57594;BME280;43423;46.510;6.686;2022-12-19T06:56:15;97324.44;;;2.23;88.08
57594;BME280;43423;46.510;6.686;2022-12-19T06:58:40;97337.69;;;2.17;87.80
57594;BME280;43423;46.510;6.686;2022-12-19T07:01:07;97333.78;;;2.22;88.23
57594;BME280;43423;46.510;6.686;2022-12-19T07:03:38;97330.19;;;2.29;87.40
57594;BME280;43423;46.510;6.686;2022-12-19T07:06:05;97327.88;;;2.27;86.35
57594;BME280;43423;46.510;6.686;2022-12-19T07:08:31;97343.00;;;2.28;87.24
57594;BME280;43423;46.510;6.686;2022-12-19T07:10:57;97342.63;;;2.26;86.99
57594;BME280;43423;46.510;6.686;2022-12-19T07:13:23;97338.34;;;2.29;86.92
57594;BME280;43423;46.510;6.686;2022-12-19T07:15:51;97350.38;;;2.28;85.94
57594;BME280;43423;46.510;6.686;2022-12-19T07:18:17;97344.16;;;2.31;85.62
57594;BME280;43423;46.510;6.686;2022-12-19T07:20:43;97344.56;;;2.26;85.79
57594;BME280;43423;46.510;6.686;2022-12-19T07:23:10;97350.88;;;2.12;86.17
57594;BME280;43423;46.510;6.686;2022-12-19T07:25:37;97353.13;;;2.24;86.37
57594;BME280;43423;46.510;6.686;2022-12-19T07:28:04;97354.19;;;2.34;85.94
57594;BME280;43423;46.510;6.686;2022-12-19T07:30:30;97351.78;;;2.43;86.33
57594;BME280;43423;46.510;6.686;2022-12-19T07:32:56;97350.22;;;2.45;86.63
57594;BME280;43423;46.510;6.686;2022-12-19T07:35:22;97353.38;;;2.40;87.30
57594;BME280;43423;46.510;6.686;2022-12-19T07:37:49;97351.47;;;2.37;88.36
57594;BME280;43423;46.510;6.686;2022-12-19T07:40:15;97354.94;;;2.38;88.37
57594;BME280;43423;46.510;6.686;2022-12-19T07:42:42;97359.56;;;2.41;88.93
57594;BME280;43423;46.510;6.686;2022-12-19T07:45:08;97362.63;;;2.46;89.49
57594;BME280;43423;46.510;6.686;2022-12-19T07:47:34;97354.91;;;2.41;90.04
57594;BME280;43423;46.510;6.686;2022-12-19T07:49:59;97368.84;;;2.43;90.98
57594;BME280;43423;46.510;6.686;2022-12-19T07:52:25;97373.47;;;2.46;90.21
57594;BME280;43423;46.510;6.686;2022-12-19T07:54:52;97370.38;;;2.44;91.34
57594;BME280;43423;46.510;6.686;2022-12-19T07:57:17;97373.41;;;2.54;90.85
57594;BME280;43423;46.510;6.686;2022-12-19T07:59:43;97374.91;;;2.58;91.55
57594;BME280;43423;46.510;6.686;2022-12-19T08:02:09;97374.84;;;2.65;91.29
57594;BME280;43423;46.510;6.686;2022-12-19T08:04:35;97379.75;;;2.77;91.96
57594;BME280;43423;46.510;6.686;2022-12-19T08:07:00;97374.63;;;2.87;90.97
57594;BME280;43423;46.510;6.686;2022-12-19T08:09:27;97378.44;;;2.93;90.34
57594;BME280;43423;46.510;6.686;2022-12-19T08:11:53;97372.91;;;3.00;90.62
57594;BME280;43423;46.510;6.686;2022-12-19T08:14:19;97385.91;;;3.16;89.99
57594;BME280;43423;46.510;6.686;2022-12-19T08:16:45;97398.22;;;3.27;90.29
57594;BME280;43423;46.510;6.686;2022-12-19T08:19:10;97391.19;;;3.30;88.20
57594;BME280;43423;46.510;6.686;2022-12-19T08:21:36;97388.72;;;3.43;86.86
57594;BME280;43423;46.510;6.686;2022-12-19T08:24:02;97387.06;;;3.49;88.06
57594;BME280;43423;46.510;6.686;2022-12-19T08:26:28;97390.50;;;3.53;89.07
57594;BME280;43423;46.510;6.686;2022-12-19T08:28:55;97381.41;;;3.67;88.99
57594;BME280;43423;46.510;6.686;2022-12-19T08:31:23;97385.44;;;3.82;89.28
57594;BME280;43423;46.510;6.686;2022-12-19T08:33:50;97376.97;;;4.03;89.00
57594;BME280;43423;46.510;6.686;2022-12-19T08:36:16;97384.44;;;4.23;89.13
57594;BME280;43423;46.510;6.686;2022-12-19T08:38:46;97384.69;;;4.32;89.07
57594;BME280;43423;46.510;6.686;2022-12-19T08:41:13;97383.38;;;4.40;88.36
57594;BME280;43423;46.510;6.686;2022-12-19T08:43:39;97372.81;;;4.42;88.35
57594;BME280;43423;46.510;6.686;2022-12-19T08:46:06;97377.75;;;4.51;88.03
57594;BME280;43423;46.510;6.686;2022-12-19T08:48:32;97379.47;;;4.41;87.53
57594;BME280;43423;46.510;6.686;2022-12-19T08:51:00;97396.63;;;4.38;87.78
57594;BME280;43423;46.510;6.686;2022-12-19T08:53:28;97400.19;;;4.35;87.59
57594;BME280;43423;46.510;6.686;2022-12-19T08:55:58;97395.22;;;4.30;87.64
57594;BME280;43423;46.510;6.686;2022-12-19T08:58:24;97394.03;;;4.31;87.92
57594;BME280;43423;46.510;6.686;2022-12-19T09:00:50;97395.91;;;4.34;88.05
57594;BME280;43423;46.510;6.686;2022-12-19T09:03:19;97396.28;;;4.36;88.25
57594;BME280;43423;46.510;6.686;2022-12-19T09:05:44;97390.00;;;4.39;88.83
57594;BME280;43423;46.510;6.686;2022-12-19T09:08:10;97388.94;;;4.33;89.43
57594;BME280;43423;46.510;6.686;2022-12-19T09:10:37;97392.16;;;4.51;89.68
57594;BME280;43423;46.510;6.686;2022-12-19T09:13:04;97395.56;;;4.55;89.50
57594;BME280;43423;46.510;6.686;2022-12-19T09:15:29;97391.72;;;4.53;89.85
57594;BME280;43423;46.510;6.686;2022-12-19T09:17:55;97391.66;;;4.56;90.08
57594;BME280;43423;46.510;6.686;2022-12-19T09:20:21;97384.97;;;4.61;89.60
57594;BME280;43423;46.510;6.686;2022-12-19T09:22:47;97380.88;;;4.49;89.41
57594;BME280;43423;46.510;6.686;2022-12-19T09:25:12;97398.63;;;4.57;88.96
57594;BME280;43423;46.510;6.686;2022-12-19T09:27:38;97394.97;;;4.67;88.05
57594;BME280;43423;46.510;6.686;2022-12-19T09:30:05;97392.13;;;4.74;87.80
57594;BME280;43423;46.510;6.686;2022-12-19T09:32:31;97392.78;;;4.82;87.37
57594;BME280;43423;46.510;6.686;2022-12-19T09:34:56;97396.94;;;4.87;87.09
57594;BME280;43423;46.510;6.686;2022-12-19T09:37:21;97400.44;;;4.87;86.86
57594;BME280;43423;46.510;6.686;2022-12-19T09:39:48;97397.38;;;4.85;87.30
57594;BME280;43423;46.510;6.686;2022-12-19T09:42:38;97415.34;;;4.83;87.75
57594;BME280;43423;46.510;6.686;2022-12-19T09:47:31;97403.25;;;4.84;87.93
57594;BME280;43423;46.510;6.686;2022-12-19T09:49:58;97404.88;;;5.01;87.67
57594;BME280;43423;46.510;6.686;2022-12-19T09:52:37;97403.63;;;5.25;86.96
57594;BME280;43423;46.510;6.686;2022-12-19T09:55:27;97408.44;;;5.18;86.38
57594;BME280;43423;46.510;6.686;2022-12-19T09:58:08;97407.31;;;5.35;86.55
57594;BME280;43423;46.510;6.686;2022-12-19T10:00:41;97409.28;;;5.35;85.64
57594;BME280;43423;46.510;6.686;2022-12-19T10:03:12;97411.44;;;5.43;85.15
57594;BME280;43423;46.510;6.686;2022-12-19T10:05:45;97400.09;;;5.45;84.54
57594;BME280;43423;46.510;6.686;2022-12-19T10:08:27;97401.91;;;5.71;84.43
57594;BME280;43423;46.510;6.686;2022-12-19T10:11:06;97399.47;;;5.57;83.90
57594;BME280;43423;46.510;6.686;2022-12-19T10:13:35;97398.81;;;6.05;82.08
57594;BME280;43423;46.510;6.686;2022-12-19T10:16:25;97406.00;;;6.15;81.86
57594;BME280;43423;46.510;6.686;2022-12-19T10:18:59;97402.84;;;6.33;81.18
57594;BME280;43423;46.510;6.686;2022-12-19T10:21:39;97393.81;;;6.20;81.40
57594;BME280;43423;46.510;6.686;2022-12-19T10:26:52;97384.41;;;6.21;81.78
57594;BME280;43423;46.510;6.686;2022-12-19T10:34:55;97384.66;;;6.10;81.67
57594;BME280;43423;46.510;6.686;2022-12-19T10:37:28;97383.53;;;5.92;81.91
57594;BME280;43423;46.510;6.686;2022-12-19T10:42:56;97388.66;;;6.06;81.88
57594;BME280;43423;46.510;6.686;2022-12-19T10:45:23;97376.72;;;6.00;82.14
57594;BME280;43423;46.510;6.686;2022-12-19T10:47:56;97379.81;;;6.02;81.40
57594;BME280;43423;46.510;6.686;2022-12-19T10:50:26;97362.41;;;6.12;81.66
57594;BME280;43423;46.510;6.686;2022-12-19T10:53:10;97370.09;;;6.33;82.07
57594;BME280;43423;46.510;6.686;2022-12-19T11:03:25;97373.47;;;6.54;80.98
57594;BME280;43423;46.510;6.686;2022-12-19T11:05:56;97374.16;;;6.58;79.03
57594;BME280;43423;46.510;6.686;2022-12-19T11:08:40;97362.63;;;6.50;79.88
57594;BME280;43423;46.510;6.686;2022-12-19T11:16:02;97367.09;;;6.89;77.92
57594;BME280;43423;46.510;6.686;2022-12-19T11:18:39;97361.22;;;7.04;77.46
57594;BME280;43423;46.510;6.686;2022-12-19T11:26:34;97347.53;;;7.45;75.78
57594;BME280;43423;46.510;6.686;2022-12-19T11:29:17;97347.06;;;7.34;76.13
57594;BME280;43423;46.510;6.686;2022-12-19T11:31:45;97355.53;;;7.65;76.12
57594;BME280;43423;46.510;6.686;2022-12-19T11:34:18;97351.72;;;7.63;75.03
57594;BME280;43423;46.510;6.686;2022-12-19T11:36:54;97344.91;;;7.54;75.90
57594;BME280;43423;46.510;6.686;2022-12-19T11:39:39;97340.31;;;7.39;75.74
57594;BME280;43423;46.510;6.686;2022-12-19T11:42:17;97336.91;;;7.47;76.48
57594;BME280;43423;46.510;6.686;2022-12-19T11:45:13;97343.59;;;7.46;75.63
57594;BME280;43423;46.510;6.686;2022-12-19T11:47:53;97339.19;;;7.23;76.53
57594;BME280;43423;46.510;6.686;2022-12-19T11:52:57;97337.22;;;7.24;79.08
57594;BME280;43423;46.510;6.686;2022-12-19T11:55:57;97335.69;;;7.23;77.57
57594;BME280;43423;46.510;6.686;2022-12-19T11:58:27;97336.56;;;7.20;79.85
57594;BME280;43423;46.510;6.686;2022-12-19T12:04:15;97330.59;;;7.09;79.73
57594;BME280;43423;46.510;6.686;2022-12-19T12:06:49;97331.38;;;7.09;79.50
57594;BME280;43423;46.510;6.686;2022-12-19T12:12:32;97317.22;;;7.27;79.25
57594;BME280;43423;46.510;6.686;2022-12-19T12:15:23;97315.34;;;7.49;78.82
57594;BME280;43423;46.510;6.686;2022-12-19T12:26:19;97326.78;;;7.06;80.05
57594;BME280;43423;46.510;6.686;2022-12-19T12:29:05;97325.13;;;7.09;80.48
57594;BME280;43423;46.510;6.686;2022-12-19T12:34:40;97319.59;;;7.12;80.96
57594;BME280;43423;46.510;6.686;2022-12-19T12:37:35;97318.66;;;7.03;81.28
57594;BME280;43423;46.510;6.686;2022-12-19T12:43:22;97310.88;;;6.88;81.65
57594;BME280;43423;46.510;6.686;2022-12-19T12:45:52;97301.47;;;6.89;81.71
57594;BME280;43423;46.510;6.686;2022-12-19T12:48:42;97309.59;;;7.06;80.68
57594;BME280;43423;46.510;6.686;2022-12-19T12:51:10;97306.13;;;7.18;80.83
57594;BME280;43423;46.510;6.686;2022-12-19T12:53:39;97300.00;;;7.14;80.32
57594;BME280;43423;46.510;6.686;2022-12-19T12:56:09;97305.63;;;7.36;79.33
57594;BME280;43423;46.510;6.686;2022-12-19T13:01:09;97297.88;;;8.32;75.95
57594;BME280;43423;46.510;6.686;2022-12-19T13:03:40;97296.91;;;8.39;76.09
57594;BME280;43423;46.510;6.686;2022-12-19T13:06:25;97288.59;;;8.52;74.99
57594;BME280;43423;46.510;6.686;2022-12-19T13:09:01;97287.31;;;8.44;74.40
57594;BME280;43423;46.510;6.686;2022-12-19T13:17:03;97281.06;;;8.43;75.79
57594;BME280;43423;46.510;6.686;2022-12-19T13:19:34;97276.88;;;8.17;76.63
57594;BME280;43423;46.510;6.686;2022-12-19T13:24:42;97290.38;;;7.98;77.22
57594;BME280;43423;46.510;6.686;2022-12-19T13:32:19;97275.34;;;8.03;76.40
57594;BME280;43423;46.510;6.686;2022-12-19T13:34:56;97291.19;;;7.61;79.11
57594;BME280;43423;46.510;6.686;2022-12-19T13:37:45;97290.28;;;7.38;80.71
57594;BME280;43423;46.510;6.686;2022-12-19T13:40:18;97290.53;;;7.44;80.71
57594;BME280;43423;46.510;6.686;2022-12-19T13:43:11;97282.28;;;7.56;80.61
57594;BME280;43423;46.510;6.686;2022-12-19T13:46:01;97289.19;;;7.87;79.61
57594;BME280;43423;46.510;6.686;2022-12-19T13:51:04;97267.53;;;7.54;79.79
57594;BME280;43423;46.510;6.686;2022-12-19T13:53:31;97271.34;;;7.69;80.30
57594;BME280;43423;46.510;6.686;2022-12-19T13:58:32;97268.56;;;7.95;79.75
57594;BME280;43423;46.510;6.686;2022-12-19T14:01:25;97275.34;;;8.16;78.62
57594;BME280;43423;46.510;6.686;2022-12-19T14:03:58;97286.59;;;8.18;78.56
57594;BME280;43423;46.510;6.686;2022-12-19T14:06:27;97296.06;;;8.04;78.80
57594;BME280;43423;46.510;6.686;2022-12-19T14:09:05;97290.59;;;8.51;77.68
57594;BME280;43423;46.510;6.686;2022-12-19T14:11:36;97295.63;;;8.53;75.39
57594;BME280;43423;46.510;6.686;2022-12-19T14:14:04;97306.81;;;8.80;73.90
57594;BME280;43423;46.510;6.686;2022-12-19T14:16:49;97304.66;;;8.97;73.99
57594;BME280;43423;46.510;6.686;2022-12-19T14:19:22;97297.41;;;9.34;73.05
57594;BME280;43423;46.510;6.686;2022-12-19T14:21:47;97306.44;;;8.91;72.67
57594;BME280;43423;46.510;6.686;2022-12-19T14:24:22;97305.59;;;9.25;72.90
57594;BME280;43423;46.510;6.686;2022-12-19T14:26:54;97302.88;;;9.56;70.81
57594;BME280;43423;46.510;6.686;2022-12-19T14:29:43;97288.66;;;9.48;70.47
57594;BME280;43423;46.510;6.686;2022-12-19T14:32:11;97307.50;;;9.15;72.30
57594;BME280;43423;46.510;6.686;2022-12-19T14:34:37;97294.28;;;9.23;73.46
57594;BME280;43423;46.510;6.686;2022-12-19T14:37:03;97290.56;;;8.86;73.15
57594;BME280;43423;46.510;6.686;2022-12-19T14:39:33;97305.97;;;9.36;71.42
57594;BME280;43423;46.510;6.686;2022-12-19T14:42:02;97303.50;;;8.85;72.74
57594;BME280;43423;46.510;6.686;2022-12-19T14:44:53;97305.09;;;8.95;72.68
57594;BME280;43423;46.510;6.686;2022-12-19T14:47:39;97294.63;;;8.59;74.00
57594;BME280;43423;46.510;6.686;2022-12-19T14:53:16;97298.47;;;8.62;74.62
57594;BME280;43423;46.510;6.686;2022-12-19T14:55:43;97287.66;;;8.46;75.10
57594;BME280;43423;46.510;6.686;2022-12-19T14:58:25;97287.28;;;8.56;75.24
57594;BME280;43423;46.510;6.686;2022-12-19T15:00:53;97285.63;;;8.24;76.64
57594;BME280;43423;46.510;6.686;2022-12-19T15:03:28;97288.09;;;7.84;76.97
57594;BME280;43423;46.510;6.686;2022-12-19T15:06:07;97284.16;;;7.72;78.87
57594;BME280;43423;46.510;6.686;2022-12-19T15:08:35;97292.81;;;7.45;79.59
57594;BME280;43423;46.510;6.686;2022-12-19T15:11:03;97277.81;;;7.63;79.38
57594;BME280;43423;46.510;6.686;2022-12-19T15:13:56;97292.69;;;7.36;79.60
57594;BME280;43423;46.510;6.686;2022-12-19T15:16:32;97282.06;;;7.13;80.59
57594;BME280;43423;46.510;6.686;2022-12-19T15:19:02;97286.06;;;6.95;81.46